<?xml version="1.0" encoding="UTF-8" standalone="no" ?>
<gpx xmlns="http://www.topografix.com/GPX/1/1" xmlns:xsi="http://www.w3.org/2001/XMLSchema-instance" xsi:schemaLocation="http://www.topografix.com/GPX/1/1 http://www.topografix.com/GPX/1/1/gpx.xsd" version="1.1" creator="VisuGPX - https://www.visugpx.com">
  <metadata>
    <name>Beaumont à Chimay KEAN</name>
  </metadata>
  <trk>
    <name><![CDATA[De Beaumont à Chimay]]></name>
    <extensions>
      <line xmlns="http://www.topografix.com/GPX/gpx_style/0/2">
        <color>0000FF</color>
        <width>4</width>
      </line>
    </extensions>
    <trkseg>
      <trkpt lat="50.23703" lon="4.23551">
        <ele>217.2</ele>
        <time>2023-10-23T08:41:48.520Z</time>
      </trkpt>
      <trkpt lat="50.23685" lon="4.23587">
        <ele>218.6</ele>
      </trkpt>
      <trkpt lat="50.23671" lon="4.23632">
        <ele>220.6</ele>
      </trkpt>
      <trkpt lat="50.23648" lon="4.23656">
        <ele>222.3</ele>
      </trkpt>
      <trkpt lat="50.23614" lon="4.23679">
        <ele>223.9</ele>
      </trkpt>
      <trkpt lat="50.23588" lon="4.23697">
        <ele>224.8</ele>
      </trkpt>
      <trkpt lat="50.23566" lon="4.23746">
        <ele>225</ele>
      </trkpt>
      <trkpt lat="50.23544" lon="4.23811">
        <ele>216.241739</ele>
        <time>2023-10-23T08:42:03.467Z</time>
      </trkpt>
      <trkpt lat="50.23528" lon="4.23857">
        <ele>216.241739</ele>
        <time>2023-10-23T08:42:39.276Z</time>
      </trkpt>
      <trkpt lat="50.23524" lon="4.23863">
        <ele>216.241739</ele>
        <time>2023-10-23T08:42:45.000Z</time>
      </trkpt>
      <trkpt lat="50.23512" lon="4.23864">
        <ele>216.241739</ele>
        <time>2023-10-23T08:42:57.556Z</time>
      </trkpt>
      <trkpt lat="50.23489" lon="4.23856">
        <ele>216.241739</ele>
        <time>2023-10-23T08:43:22.693Z</time>
      </trkpt>
      <trkpt lat="50.23461" lon="4.23887">
        <ele>214.227086</ele>
        <time>2023-10-23T08:44:00.463Z</time>
      </trkpt>
      <trkpt lat="50.23436" lon="4.23909">
        <ele>212.423771</ele>
        <time>2023-10-23T08:44:32.929Z</time>
      </trkpt>
      <trkpt lat="50.23391" lon="4.23962">
        <ele>208.898987</ele>
        <time>2023-10-23T08:45:37.545Z</time>
      </trkpt>
      <trkpt lat="50.23372" lon="4.23995">
        <ele>207.085554</ele>
        <time>2023-10-23T08:46:10.522Z</time>
      </trkpt>
      <trkpt lat="50.23368" lon="4.24002">
        <ele>206.707623</ele>
        <time>2023-10-23T08:46:17.343Z</time>
      </trkpt>
      <trkpt lat="50.23318" lon="4.24087">
        <ele>202.803949</ele>
        <time>2023-10-23T08:47:40.452Z</time>
      </trkpt>
      <trkpt lat="50.23305" lon="4.24115">
        <ele>201.771063</ele>
        <time>2023-10-23T08:48:05.138Z</time>
      </trkpt>
      <trkpt lat="50.23292" lon="4.24158">
        <ele>200.352564</ele>
        <time>2023-10-23T08:48:38.631Z</time>
      </trkpt>
      <trkpt lat="50.23286" lon="4.24196">
        <ele>199.180007</ele>
        <time>2023-10-23T08:49:05.953Z</time>
      </trkpt>
      <trkpt lat="50.23291" lon="4.24258">
        <ele>197.308033</ele>
        <time>2023-10-23T08:49:49.035Z</time>
      </trkpt>
      <trkpt lat="50.23256" lon="4.24296">
        <ele>196.336326</ele>
        <time>2023-10-23T08:50:33.883Z</time>
      </trkpt>
      <trkpt lat="50.23001" lon="4.24416">
        <ele>194.763985</ele>
        <time>2023-10-23T08:55:01.224Z</time>
      </trkpt>
      <trkpt lat="50.22919" lon="4.24451">
        <ele>194.04776</ele>
        <time>2023-10-23T08:56:27.526Z</time>
      </trkpt>
      <trkpt lat="50.22892" lon="4.24371">
        <ele>192.628979</ele>
        <time>2023-10-23T08:57:27.226Z</time>
      </trkpt>
      <trkpt lat="50.22888" lon="4.24305">
        <ele>191.586871</ele>
        <time>2023-10-23T08:58:11.725Z</time>
      </trkpt>
      <trkpt lat="50.22844" lon="4.24143">
        <ele>187.854968</ele>
        <time>2023-10-23T09:00:13.234Z</time>
      </trkpt>
      <trkpt lat="50.22831" lon="4.23972">
        <ele>183.038177</ele>
        <time>2023-10-23T09:02:14.237Z</time>
      </trkpt>
      <trkpt lat="50.2282" lon="4.23921">
        <ele>181.576929</ele>
        <time>2023-10-23T09:02:52.177Z</time>
      </trkpt>
      <trkpt lat="50.22814" lon="4.23908">
        <ele>181.180305</ele>
        <time>2023-10-23T09:03:02.791Z</time>
      </trkpt>
      <trkpt lat="50.2276" lon="4.23826">
        <ele>178.134911</ele>
        <time>2023-10-23T09:04:23.927Z</time>
      </trkpt>
      <trkpt lat="50.22716" lon="4.23775">
        <ele>175.941892</ele>
        <time>2023-10-23T09:05:23.361Z</time>
      </trkpt>
      <trkpt lat="50.22677" lon="4.23773">
        <ele>174.420646</ele>
        <time>2023-10-23T09:06:05.782Z</time>
      </trkpt>
      <trkpt lat="50.22645" lon="4.23762">
        <ele>173.209056</ele>
        <time>2023-10-23T09:06:41.232Z</time>
      </trkpt>
      <trkpt lat="50.22626" lon="4.2374">
        <ele>172.343668</ele>
        <time>2023-10-23T09:07:06.552Z</time>
      </trkpt>
      <trkpt lat="50.22605" lon="4.2369">
        <ele>170.944457</ele>
        <time>2023-10-23T09:07:47.233Z</time>
      </trkpt>
      <trkpt lat="50.22598" lon="4.23674">
        <ele>170.466075</ele>
        <time>2023-10-23T09:08:01.029Z</time>
      </trkpt>
      <trkpt lat="50.22586" lon="4.23655">
        <ele>169.836503</ele>
        <time>2023-10-23T09:08:19.266Z</time>
      </trkpt>
      <trkpt lat="50.22567" lon="4.23632">
        <ele>168.94782</ele>
        <time>2023-10-23T09:08:45.023Z</time>
      </trkpt>
      <trkpt lat="50.2254" lon="4.23627">
        <ele>168.237995</ele>
        <time>2023-10-23T09:09:14.664Z</time>
      </trkpt>
      <trkpt lat="50.22493" lon="4.2364">
        <ele>167.888392</ele>
        <time>2023-10-23T09:10:04.986Z</time>
      </trkpt>
      <trkpt lat="50.22485" lon="4.23645">
        <ele>167.820254</ele>
        <time>2023-10-23T09:10:14.740Z</time>
      </trkpt>
      <trkpt lat="50.22404" lon="4.23626">
        <ele>167.214738</ele>
        <time>2023-10-23T09:11:36.591Z</time>
      </trkpt>
      <trkpt lat="50.22343" lon="4.2359">
        <ele>168.471832</ele>
        <time>2023-10-23T09:12:47.755Z</time>
      </trkpt>
      <trkpt lat="50.22323" lon="4.23589">
        <ele>169.36116</ele>
        <time>2023-10-23T09:13:10.863Z</time>
      </trkpt>
      <trkpt lat="50.22313" lon="4.23618">
        <ele>170.281824</ele>
        <time>2023-10-23T09:13:34.703Z</time>
      </trkpt>
      <trkpt lat="50.22294" lon="4.23652">
        <ele>171.568109</ele>
        <time>2023-10-23T09:14:08.725Z</time>
      </trkpt>
      <trkpt lat="50.22286" lon="4.23663">
        <ele>172.024155</ele>
        <time>2023-10-23T09:14:20.844Z</time>
      </trkpt>
      <trkpt lat="50.22278" lon="4.23669">
        <ele>172.421683</ele>
        <time>2023-10-23T09:14:31.512Z</time>
      </trkpt>
      <trkpt lat="50.22268" lon="4.2367">
        <ele>172.851303</ele>
        <time>2023-10-23T09:14:43.268Z</time>
      </trkpt>
      <trkpt lat="50.22194" lon="4.23656">
        <ele>176.238955</ele>
        <time>2023-10-23T09:16:13.621Z</time>
      </trkpt>
      <trkpt lat="50.22196" lon="4.23693">
        <ele>177.357049</ele>
        <time>2023-10-23T09:16:42.225Z</time>
      </trkpt>
      <trkpt lat="50.22183" lon="4.2372">
        <ele>178.368932</ele>
        <time>2023-10-23T09:17:08.201Z</time>
      </trkpt>
      <trkpt lat="50.22119" lon="4.23797">
        <ele>182.189663</ele>
        <time>2023-10-23T09:18:42.899Z</time>
      </trkpt>
      <trkpt lat="50.22103" lon="4.23824">
        <ele>183.270269</ele>
        <time>2023-10-23T09:19:08.489Z</time>
      </trkpt>
      <trkpt lat="50.22087" lon="4.23866">
        <ele>183.33045</ele>
        <time>2023-10-23T09:19:42.193Z</time>
      </trkpt>
      <trkpt lat="50.22075" lon="4.23909">
        <ele>183.276743</ele>
        <time>2023-10-23T09:20:14.530Z</time>
      </trkpt>
      <trkpt lat="50.22054" lon="4.24028">
        <ele>183.139016</ele>
        <time>2023-10-23T09:21:33.311Z</time>
      </trkpt>
      <trkpt lat="50.22015" lon="4.24135">
        <ele>181.928291</ele>
        <time>2023-10-23T09:22:57.824Z</time>
      </trkpt>
      <trkpt lat="50.22015" lon="4.24135">
        <ele>181.911613</ele>
        <time>2023-10-23T09:22:58.434Z</time>
      </trkpt>
      <trkpt lat="50.22014" lon="4.24139">
        <ele>181.8228</ele>
        <time>2023-10-23T09:23:01.660Z</time>
      </trkpt>
      <trkpt lat="50.22009" lon="4.24149">
        <ele>181.592582</ele>
        <time>2023-10-23T09:23:09.794Z</time>
      </trkpt>
      <trkpt lat="50.22003" lon="4.24147">
        <ele>181.39711</ele>
        <time>2023-10-23T09:23:16.725Z</time>
      </trkpt>
      <trkpt lat="50.22003" lon="4.24152">
        <ele>181.293986</ele>
        <time>2023-10-23T09:23:20.440Z</time>
      </trkpt>
      <trkpt lat="50.21976" lon="4.2423">
        <ele>179.52975</ele>
        <time>2023-10-23T09:24:22.136Z</time>
      </trkpt>
      <trkpt lat="50.21958" lon="4.24292">
        <ele>178.192457</ele>
        <time>2023-10-23T09:25:07.673Z</time>
      </trkpt>
      <trkpt lat="50.21946" lon="4.24357">
        <ele>177.517414</ele>
        <time>2023-10-23T09:25:52.672Z</time>
      </trkpt>
      <trkpt lat="50.21933" lon="4.24402">
        <ele>177.543355</ele>
        <time>2023-10-23T09:26:25.029Z</time>
      </trkpt>
      <trkpt lat="50.21933" lon="4.24415">
        <ele>177.550456</ele>
        <time>2023-10-23T09:26:33.825Z</time>
      </trkpt>
      <trkpt lat="50.21944" lon="4.24465">
        <ele>177.578662</ele>
        <time>2023-10-23T09:27:08.133Z</time>
      </trkpt>
      <trkpt lat="50.21944" lon="4.24479">
        <ele>177.585891</ele>
        <time>2023-10-23T09:27:17.359Z</time>
      </trkpt>
      <trkpt lat="50.21939" lon="4.24496">
        <ele>177.595373</ele>
        <time>2023-10-23T09:27:29.340Z</time>
      </trkpt>
      <trkpt lat="50.21909" lon="4.24472">
        <ele>177.623025</ele>
        <time>2023-10-23T09:28:04.383Z</time>
      </trkpt>
      <trkpt lat="50.2182" lon="4.24389">
        <ele>177.306206</ele>
        <time>2023-10-23T09:29:55.645Z</time>
      </trkpt>
      <trkpt lat="50.2181" lon="4.24384">
        <ele>177.25812</ele>
        <time>2023-10-23T09:30:06.036Z</time>
      </trkpt>
      <trkpt lat="50.21803" lon="4.24373">
        <ele>177.211419</ele>
        <time>2023-10-23T09:30:16.269Z</time>
      </trkpt>
      <trkpt lat="50.21794" lon="4.24366">
        <ele>177.166182</ele>
        <time>2023-10-23T09:30:26.148Z</time>
      </trkpt>
      <trkpt lat="50.21772" lon="4.2435">
        <ele>177.050465</ele>
        <time>2023-10-23T09:30:52.172Z</time>
      </trkpt>
      <trkpt lat="50.21768" lon="4.24351">
        <ele>177.030998</ele>
        <time>2023-10-23T09:30:56.563Z</time>
      </trkpt>
      <trkpt lat="50.21763" lon="4.24354">
        <ele>177.005162</ele>
        <time>2023-10-23T09:31:02.428Z</time>
      </trkpt>
      <trkpt lat="50.21755" lon="4.24364">
        <ele>176.958531</ele>
        <time>2023-10-23T09:31:12.761Z</time>
      </trkpt>
      <trkpt lat="50.21735" lon="4.24366">
        <ele>176.864749</ele>
        <time>2023-10-23T09:31:34.076Z</time>
      </trkpt>
      <trkpt lat="50.21693" lon="4.24355">
        <ele>176.245793</ele>
        <time>2023-10-23T09:32:19.417Z</time>
      </trkpt>
      <trkpt lat="50.21691" lon="4.24355">
        <ele>176.201136</ele>
        <time>2023-10-23T09:32:21.940Z</time>
      </trkpt>
      <trkpt lat="50.21678" lon="4.24341">
        <ele>175.908028</ele>
        <time>2023-10-23T09:32:38.721Z</time>
      </trkpt>
      <trkpt lat="50.21649" lon="4.24348">
        <ele>175.378318</ele>
        <time>2023-10-23T09:33:08.916Z</time>
      </trkpt>
      <trkpt lat="50.21639" lon="4.24352">
        <ele>175.185926</ele>
        <time>2023-10-23T09:33:19.862Z</time>
      </trkpt>
      <trkpt lat="50.21631" lon="4.24335">
        <ele>174.935634</ele>
        <time>2023-10-23T09:33:34.019Z</time>
      </trkpt>
      <trkpt lat="50.21609" lon="4.24363">
        <ele>174.409927</ele>
        <time>2023-10-23T09:34:03.686Z</time>
      </trkpt>
      <trkpt lat="50.216" lon="4.24358">
        <ele>174.243822</ele>
        <time>2023-10-23T09:34:13.095Z</time>
      </trkpt>
      <trkpt lat="50.21585" lon="4.24347">
        <ele>173.930514</ele>
        <time>2023-10-23T09:34:30.886Z</time>
      </trkpt>
      <trkpt lat="50.21583" lon="4.24346">
        <ele>173.890716</ele>
        <time>2023-10-23T09:34:33.083Z</time>
      </trkpt>
      <trkpt lat="50.21515" lon="4.24307">
        <ele>174.135872</ele>
        <time>2023-10-23T09:35:45.624Z</time>
      </trkpt>
      <trkpt lat="50.21487" lon="4.24329">
        <ele>174.528644</ele>
        <time>2023-10-23T09:36:18.856Z</time>
      </trkpt>
      <trkpt lat="50.21467" lon="4.24336">
        <ele>174.779515</ele>
        <time>2023-10-23T09:36:40.579Z</time>
      </trkpt>
      <trkpt lat="50.21432" lon="4.24281">
        <ele>175.402235</ele>
        <time>2023-10-23T09:37:34.803Z</time>
      </trkpt>
      <trkpt lat="50.21428" lon="4.24269">
        <ele>175.513712</ele>
        <time>2023-10-23T09:37:44.485Z</time>
      </trkpt>
      <trkpt lat="50.21424" lon="4.24237">
        <ele>175.779683</ele>
        <time>2023-10-23T09:38:06.398Z</time>
      </trkpt>
      <trkpt lat="50.21412" lon="4.24229">
        <ele>176.01236</ele>
        <time>2023-10-23T09:38:20.476Z</time>
      </trkpt>
      <trkpt lat="50.21396" lon="4.24206">
        <ele>176.39648</ele>
        <time>2023-10-23T09:38:43.419Z</time>
      </trkpt>
      <trkpt lat="50.21371" lon="4.2418">
        <ele>176.934033</ele>
        <time>2023-10-23T09:39:15.861Z</time>
      </trkpt>
      <trkpt lat="50.21367" lon="4.24184">
        <ele>177.02152</ele>
        <time>2023-10-23T09:39:21.155Z</time>
      </trkpt>
      <trkpt lat="50.21345" lon="4.24169">
        <ele>177.454487</ele>
        <time>2023-10-23T09:39:47.185Z</time>
      </trkpt>
      <trkpt lat="50.21324" lon="4.24166">
        <ele>177.83211</ele>
        <time>2023-10-23T09:40:09.593Z</time>
      </trkpt>
      <trkpt lat="50.21315" lon="4.24169">
        <ele>177.988413</ele>
        <time>2023-10-23T09:40:18.773Z</time>
      </trkpt>
      <trkpt lat="50.21294" lon="4.24188">
        <ele>178.42471</ele>
        <time>2023-10-23T09:40:44.397Z</time>
      </trkpt>
      <trkpt lat="50.21273" lon="4.24188">
        <ele>178.806222</ele>
        <time>2023-10-23T09:41:06.590Z</time>
      </trkpt>
      <trkpt lat="50.21267" lon="4.24184">
        <ele>178.925901</ele>
        <time>2023-10-23T09:41:13.584Z</time>
      </trkpt>
      <trkpt lat="50.21238" lon="4.2419">
        <ele>179.581193</ele>
        <time>2023-10-23T09:41:43.765Z</time>
      </trkpt>
      <trkpt lat="50.21219" lon="4.24188">
        <ele>180.0235</ele>
        <time>2023-10-23T09:42:03.999Z</time>
      </trkpt>
      <trkpt lat="50.21198" lon="4.24202">
        <ele>180.541756</ele>
        <time>2023-10-23T09:42:27.599Z</time>
      </trkpt>
      <trkpt lat="50.21176" lon="4.24209">
        <ele>181.061107</ele>
        <time>2023-10-23T09:42:51.630Z</time>
      </trkpt>
      <trkpt lat="50.21107" lon="4.24253">
        <ele>182.771903</ele>
        <time>2023-10-23T09:44:13.756Z</time>
      </trkpt>
      <trkpt lat="50.21099" lon="4.24261">
        <ele>182.993718</ele>
        <time>2023-10-23T09:44:24.658Z</time>
      </trkpt>
      <trkpt lat="50.21063" lon="4.2427">
        <ele>183.917802</ele>
        <time>2023-10-23T09:45:06.087Z</time>
      </trkpt>
      <trkpt lat="50.21039" lon="4.24293">
        <ele>184.664384</ele>
        <time>2023-10-23T09:45:38.957Z</time>
      </trkpt>
      <trkpt lat="50.21005" lon="4.243">
        <ele>185.559471</ele>
        <time>2023-10-23T09:46:17.795Z</time>
      </trkpt>
      <trkpt lat="50.20974" lon="4.24313">
        <ele>186.374511</ele>
        <time>2023-10-23T09:46:52.449Z</time>
      </trkpt>
      <trkpt lat="50.20932" lon="4.24341">
        <ele>187.570898</ele>
        <time>2023-10-23T09:47:40.639Z</time>
      </trkpt>
      <trkpt lat="50.20913" lon="4.24359">
        <ele>187.578672</ele>
        <time>2023-10-23T09:48:03.237Z</time>
      </trkpt>
      <trkpt lat="50.209" lon="4.24385">
        <ele>187.26386</ele>
        <time>2023-10-23T09:48:24.610Z</time>
      </trkpt>
      <trkpt lat="50.20876" lon="4.24477">
        <ele>186.319716</ele>
        <time>2023-10-23T09:49:30.986Z</time>
      </trkpt>
      <trkpt lat="50.20879" lon="4.24503">
        <ele>186.071431</ele>
        <time>2023-10-23T09:49:49.032Z</time>
      </trkpt>
      <trkpt lat="50.20878" lon="4.24515">
        <ele>185.955277</ele>
        <time>2023-10-23T09:49:57.404Z</time>
      </trkpt>
      <trkpt lat="50.20865" lon="4.24541">
        <ele>185.648921</ele>
        <time>2023-10-23T09:50:19.276Z</time>
      </trkpt>
      <trkpt lat="50.20838" lon="4.24575">
        <ele>185.133002</ele>
        <time>2023-10-23T09:50:56.172Z</time>
      </trkpt>
      <trkpt lat="50.20786" lon="4.24611">
        <ele>186.384242</ele>
        <time>2023-10-23T09:51:54.661Z</time>
      </trkpt>
      <trkpt lat="50.20738" lon="4.24643">
        <ele>187.538745</ele>
        <time>2023-10-23T09:52:51.897Z</time>
      </trkpt>
      <trkpt lat="50.20654" lon="4.24689">
        <ele>189.520328</ele>
        <time>2023-10-23T09:54:37.126Z</time>
      </trkpt>
      <trkpt lat="50.20641" lon="4.24693">
        <ele>189.831703</ele>
        <time>2023-10-23T09:54:52.552Z</time>
      </trkpt>
      <trkpt lat="50.20592" lon="4.24711">
        <ele>190.997914</ele>
        <time>2023-10-23T09:55:50.005Z</time>
      </trkpt>
      <trkpt lat="50.20565" lon="4.24678">
        <ele>191.774081</ele>
        <time>2023-10-23T09:56:25.810Z</time>
      </trkpt>
      <trkpt lat="50.20543" lon="4.24624">
        <ele>192.73643</ele>
        <time>2023-10-23T09:57:08.375Z</time>
      </trkpt>
      <trkpt lat="50.20516" lon="4.24521">
        <ele>192.351641</ele>
        <time>2023-10-23T09:58:20.152Z</time>
      </trkpt>
      <trkpt lat="50.20502" lon="4.24497">
        <ele>191.967209</ele>
        <time>2023-10-23T09:58:41.535Z</time>
      </trkpt>
      <trkpt lat="50.20479" lon="4.24483">
        <ele>191.497986</ele>
        <time>2023-10-23T09:59:07.713Z</time>
      </trkpt>
      <trkpt lat="50.20462" lon="4.24482">
        <ele>191.178051</ele>
        <time>2023-10-23T09:59:25.727Z</time>
      </trkpt>
      <trkpt lat="50.20443" lon="4.24506">
        <ele>190.718054</ele>
        <time>2023-10-23T09:59:51.637Z</time>
      </trkpt>
      <trkpt lat="50.20436" lon="4.24527">
        <ele>190.431693</ele>
        <time>2023-10-23T10:00:07.676Z</time>
      </trkpt>
      <trkpt lat="50.20393" lon="4.24566">
        <ele>189.564742</ele>
        <time>2023-10-23T10:01:00.025Z</time>
      </trkpt>
      <trkpt lat="50.20384" lon="4.24593">
        <ele>189.267801</ele>
        <time>2023-10-23T10:01:20.401Z</time>
      </trkpt>
      <trkpt lat="50.20344" lon="4.24675">
        <ele>188.271282</ele>
        <time>2023-10-23T10:02:28.203Z</time>
      </trkpt>
      <trkpt lat="50.20304" lon="4.24708">
        <ele>187.58523</ele>
        <time>2023-10-23T10:03:14.967Z</time>
      </trkpt>
      <trkpt lat="50.20265" lon="4.24717">
        <ele>187.560264</ele>
        <time>2023-10-23T10:03:56.580Z</time>
      </trkpt>
      <trkpt lat="50.20242" lon="4.24745">
        <ele>188.669858</ele>
        <time>2023-10-23T10:04:25.891Z</time>
      </trkpt>
      <trkpt lat="50.2021" lon="4.24799">
        <ele>190.471221</ele>
        <time>2023-10-23T10:05:15.625Z</time>
      </trkpt>
      <trkpt lat="50.20191" lon="4.24839">
        <ele>191.70003</ele>
        <time>2023-10-23T10:05:52.715Z</time>
      </trkpt>
      <trkpt lat="50.20188" lon="4.24882">
        <ele>192.752227</ele>
        <time>2023-10-23T10:06:26.754Z</time>
      </trkpt>
      <trkpt lat="50.20196" lon="4.24885">
        <ele>193.08916</ele>
        <time>2023-10-23T10:06:37.598Z</time>
      </trkpt>
      <trkpt lat="50.20228" lon="4.24922">
        <ele>195.407868</ele>
        <time>2023-10-23T10:07:30.042Z</time>
      </trkpt>
      <trkpt lat="50.20352" lon="4.24951">
        <ele>206.949928</ele>
        <time>2023-10-23T10:10:16.958Z</time>
      </trkpt>
      <trkpt lat="50.20368" lon="4.24966">
        <ele>208.714553</ele>
        <time>2023-10-23T10:10:42.050Z</time>
      </trkpt>
      <trkpt lat="50.20344" lon="4.25052">
        <ele>212.866198</ele>
        <time>2023-10-23T10:11:58.711Z</time>
      </trkpt>
      <trkpt lat="50.20343" lon="4.25092">
        <ele>214.322569</ele>
        <time>2023-10-23T10:12:30.072Z</time>
      </trkpt>
      <trkpt lat="50.20352" lon="4.25142">
        <ele>216.199768</ele>
        <time>2023-10-23T10:13:09.473Z</time>
      </trkpt>
      <trkpt lat="50.20361" lon="4.25285">
        <ele>221.189114</ele>
        <time>2023-10-23T10:14:53.672Z</time>
      </trkpt>
      <trkpt lat="50.20394" lon="4.25463">
        <ele>225.489848</ele>
        <time>2023-10-23T10:17:09.136Z</time>
      </trkpt>
      <trkpt lat="50.204" lon="4.25471">
        <ele>225.762822</ele>
        <time>2023-10-23T10:17:17.524Z</time>
      </trkpt>
      <trkpt lat="50.20405" lon="4.25482">
        <ele>226.07377</ele>
        <time>2023-10-23T10:17:27.191Z</time>
      </trkpt>
      <trkpt lat="50.20416" lon="4.25552">
        <ele>227.515133</ele>
        <time>2023-10-23T10:18:18.371Z</time>
      </trkpt>
      <trkpt lat="50.20435" lon="4.25608">
        <ele>228.077674</ele>
        <time>2023-10-23T10:19:02.224Z</time>
      </trkpt>
      <trkpt lat="50.2045" lon="4.25648">
        <ele>228.48544</ele>
        <time>2023-10-23T10:19:33.292Z</time>
      </trkpt>
      <trkpt lat="50.20494" lon="4.25743">
        <ele>229.529084</ele>
        <time>2023-10-23T10:20:51.141Z</time>
      </trkpt>
      <trkpt lat="50.20593" lon="4.25873">
        <ele>229.637023</ele>
        <time>2023-10-23T10:23:00.951Z</time>
      </trkpt>
      <trkpt lat="50.20616" lon="4.25858">
        <ele>229.583931</ele>
        <time>2023-10-23T10:23:26.243Z</time>
      </trkpt>
      <trkpt lat="50.20664" lon="4.26127">
        <ele>228.856145</ele>
        <time>2023-10-23T10:26:28.100Z</time>
      </trkpt>
      <trkpt lat="50.20672" lon="4.26165">
        <ele>228.734853</ele>
        <time>2023-10-23T10:26:53.686Z</time>
      </trkpt>
      <trkpt lat="50.2068" lon="4.26179">
        <ele>228.678713</ele>
        <time>2023-10-23T10:27:05.375Z</time>
      </trkpt>
      <trkpt lat="50.20702" lon="4.26205">
        <ele>228.757563</ele>
        <time>2023-10-23T10:27:33.207Z</time>
      </trkpt>
      <trkpt lat="50.20707" lon="4.26214">
        <ele>228.834774</ele>
        <time>2023-10-23T10:27:41.360Z</time>
      </trkpt>
      <trkpt lat="50.20709" lon="4.26221">
        <ele>228.885299</ele>
        <time>2023-10-23T10:27:46.684Z</time>
      </trkpt>
      <trkpt lat="50.20707" lon="4.26245">
        <ele>229.036224</ele>
        <time>2023-10-23T10:28:02.711Z</time>
      </trkpt>
      <trkpt lat="50.20698" lon="4.26297">
        <ele>229.369494</ele>
        <time>2023-10-23T10:28:38.649Z</time>
      </trkpt>
      <trkpt lat="50.20681" lon="4.26367">
        <ele>229.838854</ele>
        <time>2023-10-23T10:29:29.147Z</time>
      </trkpt>
      <trkpt lat="50.20605" lon="4.26431">
        <ele>230.116031</ele>
        <time>2023-10-23T10:30:58.937Z</time>
      </trkpt>
      <trkpt lat="50.20527" lon="4.26478">
        <ele>229.436392</ele>
        <time>2023-10-23T10:32:22.801Z</time>
      </trkpt>
      <trkpt lat="50.20492" lon="4.26495">
        <ele>229.138223</ele>
        <time>2023-10-23T10:33:00.872Z</time>
      </trkpt>
      <trkpt lat="50.20419" lon="4.2654">
        <ele>226.432641</ele>
        <time>2023-10-23T10:34:25.381Z</time>
      </trkpt>
      <trkpt lat="50.20362" lon="4.26587">
        <ele>223.269297</ele>
        <time>2023-10-23T10:35:36.745Z</time>
      </trkpt>
      <trkpt lat="50.20336" lon="4.26612">
        <ele>221.781838</ele>
        <time>2023-10-23T10:36:10.584Z</time>
      </trkpt>
      <trkpt lat="50.20325" lon="4.2663">
        <ele>220.957492</ele>
        <time>2023-10-23T10:36:29.404Z</time>
      </trkpt>
      <trkpt lat="50.20292" lon="4.26714">
        <ele>218.045991</ele>
        <time>2023-10-23T10:37:40.203Z</time>
      </trkpt>
      <trkpt lat="50.20265" lon="4.26789">
        <ele>215.592246</ele>
        <time>2023-10-23T10:38:40.703Z</time>
      </trkpt>
      <trkpt lat="50.20252" lon="4.26849">
        <ele>213.749454</ele>
        <time>2023-10-23T10:39:25.269Z</time>
      </trkpt>
      <trkpt lat="50.20241" lon="4.26924">
        <ele>212.119245</ele>
        <time>2023-10-23T10:40:17.258Z</time>
      </trkpt>
      <trkpt lat="50.20205" lon="4.26988">
        <ele>213.027502</ele>
        <time>2023-10-23T10:41:11.931Z</time>
      </trkpt>
      <trkpt lat="50.20183" lon="4.27005">
        <ele>213.444441</ele>
        <time>2023-10-23T10:41:38.015Z</time>
      </trkpt>
      <trkpt lat="50.20131" lon="4.27026">
        <ele>214.355419</ele>
        <time>2023-10-23T10:42:38.055Z</time>
      </trkpt>
      <trkpt lat="50.20107" lon="4.27057">
        <ele>214.864446</ele>
        <time>2023-10-23T10:43:13.174Z</time>
      </trkpt>
      <trkpt lat="50.20075" lon="4.27093">
        <ele>216.977249</ele>
        <time>2023-10-23T10:44:00.542Z</time>
      </trkpt>
      <trkpt lat="50.20015" lon="4.27182">
        <ele>221.997617</ele>
        <time>2023-10-23T10:45:42.161Z</time>
      </trkpt>
      <trkpt lat="50.19967" lon="4.27239">
        <ele>225.629433</ele>
        <time>2023-10-23T10:46:55.515Z</time>
      </trkpt>
      <trkpt lat="50.19951" lon="4.27255">
        <ele>226.542014</ele>
        <time>2023-10-23T10:47:19.277Z</time>
      </trkpt>
      <trkpt lat="50.19907" lon="4.27276">
        <ele>228.505429</ele>
        <time>2023-10-23T10:48:13.889Z</time>
      </trkpt>
      <trkpt lat="50.19844" lon="4.27316">
        <ele>231.417004</ele>
        <time>2023-10-23T10:49:32.454Z</time>
      </trkpt>
      <trkpt lat="50.19784" lon="4.2734">
        <ele>233.520709</ele>
        <time>2023-10-23T10:50:41.734Z</time>
      </trkpt>
      <trkpt lat="50.19677" lon="4.27335">
        <ele>232.800988</ele>
        <time>2023-10-23T10:52:28.714Z</time>
      </trkpt>
      <trkpt lat="50.19654" lon="4.27329">
        <ele>232.643853</ele>
        <time>2023-10-23T10:52:53.046Z</time>
      </trkpt>
      <trkpt lat="50.19612" lon="4.2728">
        <ele>231.523695</ele>
        <time>2023-10-23T10:53:49.061Z</time>
      </trkpt>
      <trkpt lat="50.1955" lon="4.27182">
        <ele>226.340494</ele>
        <time>2023-10-23T10:55:26.623Z</time>
      </trkpt>
      <trkpt lat="50.19516" lon="4.27125">
        <ele>223.424884</ele>
        <time>2023-10-23T10:56:23.628Z</time>
      </trkpt>
      <trkpt lat="50.19477" lon="4.27047">
        <ele>218.801287</ele>
        <time>2023-10-23T10:57:37.825Z</time>
      </trkpt>
      <trkpt lat="50.19451" lon="4.27002">
        <ele>215.655561</ele>
        <time>2023-10-23T10:58:22.368Z</time>
      </trkpt>
      <trkpt lat="50.19414" lon="4.26956">
        <ele>211.757098</ele>
        <time>2023-10-23T10:59:17.837Z</time>
      </trkpt>
      <trkpt lat="50.19389" lon="4.26953">
        <ele>209.680095</ele>
        <time>2023-10-23T10:59:47.296Z</time>
      </trkpt>
      <trkpt lat="50.19348" lon="4.26972">
        <ele>206.428775</ele>
        <time>2023-10-23T11:00:36.952Z</time>
      </trkpt>
      <trkpt lat="50.19311" lon="4.26972">
        <ele>204.300285</ele>
        <time>2023-10-23T11:01:20.220Z</time>
      </trkpt>
      <trkpt lat="50.19256" lon="4.26876">
        <ele>199.651853</ele>
        <time>2023-10-23T11:02:51.798Z</time>
      </trkpt>
      <trkpt lat="50.1917" lon="4.2686">
        <ele>196.389688</ele>
        <time>2023-10-23T11:04:24.699Z</time>
      </trkpt>
      <trkpt lat="50.19144" lon="4.26856">
        <ele>196.101676</ele>
        <time>2023-10-23T11:04:52.759Z</time>
      </trkpt>
      <trkpt lat="50.19096" lon="4.26857">
        <ele>195.595026</ele>
        <time>2023-10-23T11:05:40.704Z</time>
      </trkpt>
      <trkpt lat="50.19087" lon="4.26849">
        <ele>195.483646</ele>
        <time>2023-10-23T11:05:51.320Z</time>
      </trkpt>
      <trkpt lat="50.19082" lon="4.26835">
        <ele>195.372699</ele>
        <time>2023-10-23T11:06:01.700Z</time>
      </trkpt>
      <trkpt lat="50.1908" lon="4.26805">
        <ele>195.163719</ele>
        <time>2023-10-23T11:06:21.470Z</time>
      </trkpt>
      <trkpt lat="50.19072" lon="4.26783">
        <ele>194.990992</ele>
        <time>2023-10-23T11:06:37.846Z</time>
      </trkpt>
      <trkpt lat="50.19064" lon="4.2677">
        <ele>194.86444</ele>
        <time>2023-10-23T11:06:49.840Z</time>
      </trkpt>
      <trkpt lat="50.19055" lon="4.26761">
        <ele>194.911124</ele>
        <time>2023-10-23T11:07:01.201Z</time>
      </trkpt>
      <trkpt lat="50.19046" lon="4.26763">
        <ele>194.97108</ele>
        <time>2023-10-23T11:07:09.976Z</time>
      </trkpt>
      <trkpt lat="50.19043" lon="4.26767">
        <ele>195.000456</ele>
        <time>2023-10-23T11:07:14.229Z</time>
      </trkpt>
      <trkpt lat="50.19026" lon="4.26833">
        <ele>195.322773</ele>
        <time>2023-10-23T11:08:01.472Z</time>
      </trkpt>
      <trkpt lat="50.19019" lon="4.26847">
        <ele>195.408984</ele>
        <time>2023-10-23T11:08:14.187Z</time>
      </trkpt>
      <trkpt lat="50.19018" lon="4.26852">
        <ele>195.431748</ele>
        <time>2023-10-23T11:08:17.575Z</time>
      </trkpt>
      <trkpt lat="50.18978" lon="4.26857">
        <ele>195.716992</ele>
        <time>2023-10-23T11:08:58.917Z</time>
      </trkpt>
      <trkpt lat="50.18913" lon="4.26837">
        <ele>196.018389</ele>
        <time>2023-10-23T11:10:07.071Z</time>
      </trkpt>
      <trkpt lat="50.18898" lon="4.26828">
        <ele>195.825814</ele>
        <time>2023-10-23T11:10:23.835Z</time>
      </trkpt>
      <trkpt lat="50.18824" lon="4.26832">
        <ele>194.969538</ele>
        <time>2023-10-23T11:11:39.702Z</time>
      </trkpt>
      <trkpt lat="50.18812" lon="4.26821">
        <ele>194.815557</ele>
        <time>2023-10-23T11:11:53.593Z</time>
      </trkpt>
      <trkpt lat="50.18787" lon="4.26789">
        <ele>194.439561</ele>
        <time>2023-10-23T11:12:27.300Z</time>
      </trkpt>
      <trkpt lat="50.18767" lon="4.26779">
        <ele>194.198913</ele>
        <time>2023-10-23T11:12:49.025Z</time>
      </trkpt>
      <trkpt lat="50.18747" lon="4.26785">
        <ele>194.024171</ele>
        <time>2023-10-23T11:13:10.173Z</time>
      </trkpt>
      <trkpt lat="50.18738" lon="4.26791">
        <ele>193.996051</ele>
        <time>2023-10-23T11:13:20.739Z</time>
      </trkpt>
      <trkpt lat="50.18716" lon="4.26777">
        <ele>193.929505</ele>
        <time>2023-10-23T11:13:45.702Z</time>
      </trkpt>
      <trkpt lat="50.18681" lon="4.26747">
        <ele>193.820697</ele>
        <time>2023-10-23T11:14:26.226Z</time>
      </trkpt>
      <trkpt lat="50.1867" lon="4.26737">
        <ele>193.784514</ele>
        <time>2023-10-23T11:14:39.665Z</time>
      </trkpt>
      <trkpt lat="50.18664" lon="4.26732">
        <ele>193.764502</ele>
        <time>2023-10-23T11:14:47.015Z</time>
      </trkpt>
      <trkpt lat="50.18628" lon="4.26703">
        <ele>193.652548</ele>
        <time>2023-10-23T11:15:27.752Z</time>
      </trkpt>
      <trkpt lat="50.18608" lon="4.26693">
        <ele>193.59524</ele>
        <time>2023-10-23T11:15:49.268Z</time>
      </trkpt>
      <trkpt lat="50.18578" lon="4.26691">
        <ele>194.326247</ele>
        <time>2023-10-23T11:16:21.893Z</time>
      </trkpt>
      <trkpt lat="50.18563" lon="4.26696">
        <ele>195.325167</ele>
        <time>2023-10-23T11:16:38.635Z</time>
      </trkpt>
      <trkpt lat="50.18557" lon="4.26665">
        <ele>196.716715</ele>
        <time>2023-10-23T11:17:02.964Z</time>
      </trkpt>
      <trkpt lat="50.18552" lon="4.26587">
        <ele>200.102541</ele>
        <time>2023-10-23T11:18:04.908Z</time>
      </trkpt>
      <trkpt lat="50.18545" lon="4.26588">
        <ele>200.579917</ele>
        <time>2023-10-23T11:18:13.962Z</time>
      </trkpt>
      <trkpt lat="50.18523" lon="4.26571">
        <ele>202.199359</ele>
        <time>2023-10-23T11:18:45.271Z</time>
      </trkpt>
      <trkpt lat="50.18511" lon="4.2657">
        <ele>202.97485</ele>
        <time>2023-10-23T11:19:00.428Z</time>
      </trkpt>
      <trkpt lat="50.18448" lon="4.26592">
        <ele>207.892516</ele>
        <time>2023-10-23T11:20:27.253Z</time>
      </trkpt>
      <trkpt lat="50.18432" lon="4.26601">
        <ele>209.437921</ele>
        <time>2023-10-23T11:20:50.677Z</time>
      </trkpt>
      <trkpt lat="50.18421" lon="4.26622">
        <ele>210.943917</ele>
        <time>2023-10-23T11:21:13.389Z</time>
      </trkpt>
      <trkpt lat="50.18408" lon="4.26635">
        <ele>212.335657</ele>
        <time>2023-10-23T11:21:34.493Z</time>
      </trkpt>
      <trkpt lat="50.18347" lon="4.26688">
        <ele>218.482067</ele>
        <time>2023-10-23T11:23:05.195Z</time>
      </trkpt>
      <trkpt lat="50.18272" lon="4.26744">
        <ele>223.536118</ele>
        <time>2023-10-23T11:24:47.567Z</time>
      </trkpt>
      <trkpt lat="50.18247" lon="4.26768">
        <ele>224.74786</ele>
        <time>2023-10-23T11:25:21.738Z</time>
      </trkpt>
      <trkpt lat="50.18173" lon="4.2677">
        <ele>227.840971</ele>
        <time>2023-10-23T11:26:44.861Z</time>
      </trkpt>
      <trkpt lat="50.18126" lon="4.26748">
        <ele>228.928141</ele>
        <time>2023-10-23T11:27:35.717Z</time>
      </trkpt>
      <trkpt lat="50.18098" lon="4.26752">
        <ele>228.867529</ele>
        <time>2023-10-23T11:28:04.387Z</time>
      </trkpt>
      <trkpt lat="50.18079" lon="4.26798">
        <ele>228.793592</ele>
        <time>2023-10-23T11:28:39.331Z</time>
      </trkpt>
      <trkpt lat="50.18061" lon="4.26814">
        <ele>228.748659</ele>
        <time>2023-10-23T11:29:00.599Z</time>
      </trkpt>
      <trkpt lat="50.18041" lon="4.26856">
        <ele>228.678342</ele>
        <time>2023-10-23T11:29:34.113Z</time>
      </trkpt>
      <trkpt lat="50.18016" lon="4.26893">
        <ele>228.605153</ele>
        <time>2023-10-23T11:30:09.533Z</time>
      </trkpt>
      <trkpt lat="50.18018" lon="4.26909">
        <ele>228.462964</ele>
        <time>2023-10-23T11:30:20.100Z</time>
      </trkpt>
      <trkpt lat="50.17994" lon="4.26916">
        <ele>227.703226</ele>
        <time>2023-10-23T11:30:45.525Z</time>
      </trkpt>
      <trkpt lat="50.17934" lon="4.26919">
        <ele>225.868515</ele>
        <time>2023-10-23T11:31:48.835Z</time>
      </trkpt>
      <trkpt lat="50.17905" lon="4.26911">
        <ele>224.960423</ele>
        <time>2023-10-23T11:32:20.538Z</time>
      </trkpt>
      <trkpt lat="50.1784" lon="4.26862">
        <ele>222.632765</ele>
        <time>2023-10-23T11:33:38.518Z</time>
      </trkpt>
      <trkpt lat="50.17811" lon="4.26861">
        <ele>221.480017</ele>
        <time>2023-10-23T11:34:09.591Z</time>
      </trkpt>
      <trkpt lat="50.1772" lon="4.26895">
        <ele>217.69118</ele>
        <time>2023-10-23T11:35:52.429Z</time>
      </trkpt>
      <trkpt lat="50.17699" lon="4.26908">
        <ele>216.802755</ele>
        <time>2023-10-23T11:36:16.381Z</time>
      </trkpt>
      <trkpt lat="50.17635" lon="4.27032">
        <ele>214.490816</ele>
        <time>2023-10-23T11:38:04.523Z</time>
      </trkpt>
      <trkpt lat="50.17622" lon="4.27061">
        <ele>214.104042</ele>
        <time>2023-10-23T11:38:27.900Z</time>
      </trkpt>
      <trkpt lat="50.17615" lon="4.27116">
        <ele>213.493233</ele>
        <time>2023-10-23T11:39:04.497Z</time>
      </trkpt>
      <trkpt lat="50.17602" lon="4.27142">
        <ele>213.138</ele>
        <time>2023-10-23T11:39:25.712Z</time>
      </trkpt>
      <trkpt lat="50.17565" lon="4.27192">
        <ele>212.947285</ele>
        <time>2023-10-23T11:40:15.242Z</time>
      </trkpt>
      <trkpt lat="50.17488" lon="4.27307">
        <ele>213.774552</ele>
        <time>2023-10-23T11:42:04.889Z</time>
      </trkpt>
      <trkpt lat="50.17471" lon="4.27327">
        <ele>213.93718</ele>
        <time>2023-10-23T11:42:26.755Z</time>
      </trkpt>
      <trkpt lat="50.17436" lon="4.27354">
        <ele>214.763468</ele>
        <time>2023-10-23T11:43:07.850Z</time>
      </trkpt>
      <trkpt lat="50.174" lon="4.27359">
        <ele>216.507473</ele>
        <time>2023-10-23T11:43:47.517Z</time>
      </trkpt>
      <trkpt lat="50.17363" lon="4.27365">
        <ele>218.31419</ele>
        <time>2023-10-23T11:44:30.096Z</time>
      </trkpt>
      <trkpt lat="50.17336" lon="4.27361">
        <ele>219.652126</ele>
        <time>2023-10-23T11:45:02.798Z</time>
      </trkpt>
      <trkpt lat="50.17301" lon="4.27337">
        <ele>221.495557</ele>
        <time>2023-10-23T11:45:49.342Z</time>
      </trkpt>
      <trkpt lat="50.17253" lon="4.27298">
        <ele>224.71745</ele>
        <time>2023-10-23T11:46:57.542Z</time>
      </trkpt>
      <trkpt lat="50.17232" lon="4.27275">
        <ele>226.567964</ele>
        <time>2023-10-23T11:47:30.585Z</time>
      </trkpt>
      <trkpt lat="50.17216" lon="4.27266">
        <ele>227.761837</ele>
        <time>2023-10-23T11:47:51.710Z</time>
      </trkpt>
      <trkpt lat="50.17199" lon="4.27256">
        <ele>229.029492</ele>
        <time>2023-10-23T11:48:14.273Z</time>
      </trkpt>
      <trkpt lat="50.17088" lon="4.27215">
        <ele>236.578951</ele>
        <time>2023-10-23T11:50:35.735Z</time>
      </trkpt>
      <trkpt lat="50.17047" lon="4.27187">
        <ele>238.424278</ele>
        <time>2023-10-23T11:51:28.248Z</time>
      </trkpt>
      <trkpt lat="50.17016" lon="4.27174">
        <ele>239.759299</ele>
        <time>2023-10-23T11:52:05.263Z</time>
      </trkpt>
      <trkpt lat="50.16991" lon="4.27156">
        <ele>240.912532</ele>
        <time>2023-10-23T11:52:36.572Z</time>
      </trkpt>
      <trkpt lat="50.16981" lon="4.27128">
        <ele>241.756043</ele>
        <time>2023-10-23T11:52:59.005Z</time>
      </trkpt>
      <trkpt lat="50.16966" lon="4.27113">
        <ele>242.512229</ele>
        <time>2023-10-23T11:53:19.011Z</time>
      </trkpt>
      <trkpt lat="50.16938" lon="4.27094">
        <ele>243.289144</ele>
        <time>2023-10-23T11:53:51.041Z</time>
      </trkpt>
      <trkpt lat="50.16919" lon="4.27088">
        <ele>243.451191</ele>
        <time>2023-10-23T11:54:11.627Z</time>
      </trkpt>
      <trkpt lat="50.16847" lon="4.27051">
        <ele>244.082163</ele>
        <time>2023-10-23T11:55:29.655Z</time>
      </trkpt>
      <trkpt lat="50.16827" lon="4.27047">
        <ele>244.252644</ele>
        <time>2023-10-23T11:55:50.451Z</time>
      </trkpt>
      <trkpt lat="50.16768" lon="4.27045">
        <ele>244.691297</ele>
        <time>2023-10-23T11:56:49.312Z</time>
      </trkpt>
      <trkpt lat="50.16708" lon="4.27001">
        <ele>244.852571</ele>
        <time>2023-10-23T11:57:56.561Z</time>
      </trkpt>
      <trkpt lat="50.16679" lon="4.27057">
        <ele>244.96527</ele>
        <time>2023-10-23T11:58:43.346Z</time>
      </trkpt>
      <trkpt lat="50.16619" lon="4.27195">
        <ele>246.195781</ele>
        <time>2023-10-23T12:00:34.395Z</time>
      </trkpt>
      <trkpt lat="50.1653" lon="4.27152">
        <ele>248.278168</ele>
        <time>2023-10-23T12:02:15.862Z</time>
      </trkpt>
      <trkpt lat="50.16538" lon="4.27098">
        <ele>249.071949</ele>
        <time>2023-10-23T12:02:54.846Z</time>
      </trkpt>
      <trkpt lat="50.16547" lon="4.26993">
        <ele>251.331413</ele>
        <time>2023-10-23T12:04:11.564Z</time>
      </trkpt>
      <trkpt lat="50.16561" lon="4.26903">
        <ele>253.315957</ele>
        <time>2023-10-23T12:05:18.057Z</time>
      </trkpt>
      <trkpt lat="50.16525" lon="4.26803">
        <ele>255.759099</ele>
        <time>2023-10-23T12:06:40.386Z</time>
      </trkpt>
      <trkpt lat="50.16484" lon="4.26713">
        <ele>258.0055</ele>
        <time>2023-10-23T12:07:58.299Z</time>
      </trkpt>
      <trkpt lat="50.16443" lon="4.26653">
        <ele>259.806924</ele>
        <time>2023-10-23T12:09:01.569Z</time>
      </trkpt>
      <trkpt lat="50.16415" lon="4.26622">
        <ele>260.910898</ele>
        <time>2023-10-23T12:09:40.053Z</time>
      </trkpt>
      <trkpt lat="50.16365" lon="4.26586">
        <ele>262.401704</ele>
        <time>2023-10-23T12:10:41.138Z</time>
      </trkpt>
      <trkpt lat="50.16322" lon="4.26538">
        <ele>263.82473</ele>
        <time>2023-10-23T12:11:38.890Z</time>
      </trkpt>
      <trkpt lat="50.16248" lon="4.26447">
        <ele>266.194439</ele>
        <time>2023-10-23T12:13:20.949Z</time>
      </trkpt>
      <trkpt lat="50.16199" lon="4.26402">
        <ele>267.318973</ele>
        <time>2023-10-23T12:14:22.717Z</time>
      </trkpt>
      <trkpt lat="50.16174" lon="4.26392">
        <ele>267.820642</ele>
        <time>2023-10-23T12:14:50.225Z</time>
      </trkpt>
      <trkpt lat="50.16014" lon="4.26353">
        <ele>269.728544</ele>
        <time>2023-10-23T12:17:41.245Z</time>
      </trkpt>
      <trkpt lat="50.16013" lon="4.26371">
        <ele>269.784368</ele>
        <time>2023-10-23T12:17:53.188Z</time>
      </trkpt>
      <trkpt lat="50.16009" lon="4.26752">
        <ele>269.459611</ele>
        <time>2023-10-23T12:22:00.614Z</time>
      </trkpt>
      <trkpt lat="50.16012" lon="4.26784">
        <ele>269.395851</ele>
        <time>2023-10-23T12:22:20.967Z</time>
      </trkpt>
      <trkpt lat="50.16033" lon="4.26806">
        <ele>269.426569</ele>
        <time>2023-10-23T12:22:46.511Z</time>
      </trkpt>
      <trkpt lat="50.16038" lon="4.26822">
        <ele>269.440863</ele>
        <time>2023-10-23T12:22:58.358Z</time>
      </trkpt>
      <trkpt lat="50.16039" lon="4.26855">
        <ele>269.465928</ele>
        <time>2023-10-23T12:23:19.306Z</time>
      </trkpt>
      <trkpt lat="50.16035" lon="4.2699">
        <ele>269.570502</ele>
        <time>2023-10-23T12:24:47.245Z</time>
      </trkpt>
      <trkpt lat="50.16023" lon="4.27256">
        <ele>269.142034</ele>
        <time>2023-10-23T12:27:38.803Z</time>
      </trkpt>
      <trkpt lat="50.16012" lon="4.27695">
        <ele>267.269435</ele>
        <time>2023-10-23T12:32:26.674Z</time>
      </trkpt>
      <trkpt lat="50.15995" lon="4.2769">
        <ele>267.293866</ele>
        <time>2023-10-23T12:32:44.554Z</time>
      </trkpt>
      <trkpt lat="50.15953" lon="4.27666">
        <ele>267.354328</ele>
        <time>2023-10-23T12:33:29.575Z</time>
      </trkpt>
      <trkpt lat="50.15937" lon="4.27665">
        <ele>267.377514</ele>
        <time>2023-10-23T12:33:47.019Z</time>
      </trkpt>
      <trkpt lat="50.15921" lon="4.27654">
        <ele>267.400829</ele>
        <time>2023-10-23T12:34:04.821Z</time>
      </trkpt>
      <trkpt lat="50.15905" lon="4.27649">
        <ele>267.422936</ele>
        <time>2023-10-23T12:34:21.698Z</time>
      </trkpt>
      <trkpt lat="50.159" lon="4.27642">
        <ele>267.439553</ele>
        <time>2023-10-23T12:34:29.378Z</time>
      </trkpt>
      <trkpt lat="50.1586" lon="4.27624">
        <ele>267.690711</ele>
        <time>2023-10-23T12:35:12.480Z</time>
      </trkpt>
      <trkpt lat="50.15764" lon="4.27562">
        <ele>268.328151</ele>
        <time>2023-10-23T12:36:59.265Z</time>
      </trkpt>
      <trkpt lat="50.15734" lon="4.27558">
        <ele>268.517867</ele>
        <time>2023-10-23T12:37:30.186Z</time>
      </trkpt>
      <trkpt lat="50.15716" lon="4.2756">
        <ele>268.139143</ele>
        <time>2023-10-23T12:37:48.338Z</time>
      </trkpt>
      <trkpt lat="50.15687" lon="4.27541">
        <ele>267.322417</ele>
        <time>2023-10-23T12:38:20.512Z</time>
      </trkpt>
      <trkpt lat="50.15669" lon="4.2754">
        <ele>266.865759</ele>
        <time>2023-10-23T12:38:38.680Z</time>
      </trkpt>
      <trkpt lat="50.15658" lon="4.27525">
        <ele>266.487413</ele>
        <time>2023-10-23T12:38:53.922Z</time>
      </trkpt>
      <trkpt lat="50.15685" lon="4.27409">
        <ele>264.44759</ele>
        <time>2023-10-23T12:40:17.918Z</time>
      </trkpt>
      <trkpt lat="50.15691" lon="4.27394">
        <ele>264.157891</ele>
        <time>2023-10-23T12:40:30.052Z</time>
      </trkpt>
      <trkpt lat="50.15403" lon="4.27368">
        <ele>249.57749</ele>
        <time>2023-10-23T12:45:50.755Z</time>
      </trkpt>
      <trkpt lat="50.15164" lon="4.27346">
        <ele>239.752649</ele>
        <time>2023-10-23T12:50:10.317Z</time>
      </trkpt>
      <trkpt lat="50.15141" lon="4.2733">
        <ele>238.885846</ele>
        <time>2023-10-23T12:50:36.807Z</time>
      </trkpt>
      <trkpt lat="50.15117" lon="4.27346">
        <ele>238.837696</ele>
        <time>2023-10-23T12:51:03.830Z</time>
      </trkpt>
      <trkpt lat="50.14986" lon="4.27424">
        <ele>238.57543</ele>
        <time>2023-10-23T12:53:25.213Z</time>
      </trkpt>
      <trkpt lat="50.1492" lon="4.27469">
        <ele>239.609493</ele>
        <time>2023-10-23T12:54:43.280Z</time>
      </trkpt>
      <trkpt lat="50.14909" lon="4.27479">
        <ele>239.82865</ele>
        <time>2023-10-23T12:54:57.212Z</time>
      </trkpt>
      <trkpt lat="50.14878" lon="4.2751">
        <ele>240.474255</ele>
        <time>2023-10-23T12:55:37.065Z</time>
      </trkpt>
      <trkpt lat="50.14846" lon="4.2754">
        <ele>241.129655</ele>
        <time>2023-10-23T12:56:17.282Z</time>
      </trkpt>
      <trkpt lat="50.14787" lon="4.27616">
        <ele>241.475101</ele>
        <time>2023-10-23T12:57:37.021Z</time>
      </trkpt>
      <trkpt lat="50.14732" lon="4.27698">
        <ele>241.088739</ele>
        <time>2023-10-23T12:58:54.721Z</time>
      </trkpt>
      <trkpt lat="50.14565" lon="4.27996">
        <ele>238.220657</ele>
        <time>2023-10-23T13:03:16.436Z</time>
      </trkpt>
      <trkpt lat="50.14528" lon="4.28072">
        <ele>238.435839</ele>
        <time>2023-10-23T13:04:19.105Z</time>
      </trkpt>
      <trkpt lat="50.14476" lon="4.28211">
        <ele>238.793941</ele>
        <time>2023-10-23T13:06:05.515Z</time>
      </trkpt>
      <trkpt lat="50.14462" lon="4.28184">
        <ele>238.819666</ele>
        <time>2023-10-23T13:06:27.867Z</time>
      </trkpt>
      <trkpt lat="50.14457" lon="4.28191">
        <ele>238.825857</ele>
        <time>2023-10-23T13:06:34.595Z</time>
      </trkpt>
      <trkpt lat="50.14442" lon="4.28228">
        <ele>238.853652</ele>
        <time>2023-10-23T13:07:03.681Z</time>
      </trkpt>
      <trkpt lat="50.14421" lon="4.28296">
        <ele>238.900769</ele>
        <time>2023-10-23T13:07:52.632Z</time>
      </trkpt>
      <trkpt lat="50.14408" lon="4.28337">
        <ele>238.92954</ele>
        <time>2023-10-23T13:08:22.318Z</time>
      </trkpt>
      <trkpt lat="50.14339" lon="4.28353">
        <ele>238.650808</ele>
        <time>2023-10-23T13:09:32.195Z</time>
      </trkpt>
      <trkpt lat="50.14333" lon="4.28348">
        <ele>238.544258</ele>
        <time>2023-10-23T13:09:39.358Z</time>
      </trkpt>
      <trkpt lat="50.14327" lon="4.28356">
        <ele>238.43162</ele>
        <time>2023-10-23T13:09:46.985Z</time>
      </trkpt>
      <trkpt lat="50.1432" lon="4.28354">
        <ele>238.318209</ele>
        <time>2023-10-23T13:09:54.624Z</time>
      </trkpt>
      <trkpt lat="50.14297" lon="4.28453">
        <ele>237.299731</ele>
        <time>2023-10-23T13:11:04.263Z</time>
      </trkpt>
      <trkpt lat="50.14286" lon="4.28523">
        <ele>236.61272</ele>
        <time>2023-10-23T13:11:52.078Z</time>
      </trkpt>
      <trkpt lat="50.14285" lon="4.28549">
        <ele>236.362982</ele>
        <time>2023-10-23T13:12:09.580Z</time>
      </trkpt>
      <trkpt lat="50.1429" lon="4.28589">
        <ele>235.656215</ele>
        <time>2023-10-23T13:12:37.485Z</time>
      </trkpt>
      <trkpt lat="50.14272" lon="4.28606">
        <ele>235.050107</ele>
        <time>2023-10-23T13:12:58.973Z</time>
      </trkpt>
      <trkpt lat="50.14171" lon="4.28827">
        <ele>230.072384</ele>
        <time>2023-10-23T13:16:04.526Z</time>
      </trkpt>
      <trkpt lat="50.14132" lon="4.28903">
        <ele>228.616665</ele>
        <time>2023-10-23T13:17:10.686Z</time>
      </trkpt>
      <trkpt lat="50.14091" lon="4.28966">
        <ele>227.283147</ele>
        <time>2023-10-23T13:18:10.523Z</time>
      </trkpt>
      <trkpt lat="50.14075" lon="4.28996">
        <ele>226.715671</ele>
        <time>2023-10-23T13:18:35.877Z</time>
      </trkpt>
      <trkpt lat="50.14052" lon="4.29053">
        <ele>225.945343</ele>
        <time>2023-10-23T13:19:20.702Z</time>
      </trkpt>
      <trkpt lat="50.14044" lon="4.2908">
        <ele>225.607483</ele>
        <time>2023-10-23T13:19:40.425Z</time>
      </trkpt>
      <trkpt lat="50.14038" lon="4.29155">
        <ele>224.757365</ele>
        <time>2023-10-23T13:20:30.221Z</time>
      </trkpt>
      <trkpt lat="50.14042" lon="4.2929">
        <ele>223.267148</ele>
        <time>2023-10-23T13:22:00.765Z</time>
      </trkpt>
      <trkpt lat="50.14053" lon="4.29376">
        <ele>222.402694</ele>
        <time>2023-10-23T13:23:00.035Z</time>
      </trkpt>
      <trkpt lat="50.14044" lon="4.29545">
        <ele>220.827577</ele>
        <time>2023-10-23T13:24:51.724Z</time>
      </trkpt>
      <trkpt lat="50.14046" lon="4.29588">
        <ele>221.11335</ele>
        <time>2023-10-23T13:25:19.337Z</time>
      </trkpt>
      <trkpt lat="50.14048" lon="4.29603">
        <ele>221.213327</ele>
        <time>2023-10-23T13:25:28.994Z</time>
      </trkpt>
      <trkpt lat="50.14055" lon="4.29629">
        <ele>221.404822</ele>
        <time>2023-10-23T13:25:47.742Z</time>
      </trkpt>
      <trkpt lat="50.14096" lon="4.29717">
        <ele>222.131703</ele>
        <time>2023-10-23T13:27:01.241Z</time>
      </trkpt>
      <trkpt lat="50.14081" lon="4.29744">
        <ele>222.362316</ele>
        <time>2023-10-23T13:27:24.757Z</time>
      </trkpt>
      <trkpt lat="50.14067" lon="4.2979">
        <ele>222.779827</ele>
        <time>2023-10-23T13:28:00.133Z</time>
      </trkpt>
      <trkpt lat="50.14061" lon="4.29834">
        <ele>223.662003</ele>
        <time>2023-10-23T13:28:31.407Z</time>
      </trkpt>
      <trkpt lat="50.14055" lon="4.29923">
        <ele>225.42017</ele>
        <time>2023-10-23T13:29:34.637Z</time>
      </trkpt>
      <trkpt lat="50.14019" lon="4.29921">
        <ele>226.522277</ele>
        <time>2023-10-23T13:30:14.787Z</time>
      </trkpt>
      <trkpt lat="50.13976" lon="4.2993">
        <ele>227.843477</ele>
        <time>2023-10-23T13:31:03.781Z</time>
      </trkpt>
      <trkpt lat="50.13898" lon="4.29965">
        <ele>230.657399</ele>
        <time>2023-10-23T13:32:35.363Z</time>
      </trkpt>
      <trkpt lat="50.13863" lon="4.29969">
        <ele>231.915539</ele>
        <time>2023-10-23T13:33:15.380Z</time>
      </trkpt>
      <trkpt lat="50.13839" lon="4.29996">
        <ele>232.951922</ele>
        <time>2023-10-23T13:33:48.620Z</time>
      </trkpt>
      <trkpt lat="50.1382" lon="4.30039">
        <ele>234.136803</ele>
        <time>2023-10-23T13:34:26.558Z</time>
      </trkpt>
      <trkpt lat="50.13828" lon="4.3012">
        <ele>235.398817</ele>
        <time>2023-10-23T13:35:25.472Z</time>
      </trkpt>
      <trkpt lat="50.13853" lon="4.30215">
        <ele>236.761562</ele>
        <time>2023-10-23T13:36:36.279Z</time>
      </trkpt>
      <trkpt lat="50.13875" lon="4.30296">
        <ele>237.940912</ele>
        <time>2023-10-23T13:37:35.264Z</time>
      </trkpt>
      <trkpt lat="50.13902" lon="4.30335">
        <ele>238.702389</ele>
        <time>2023-10-23T13:38:13.386Z</time>
      </trkpt>
      <trkpt lat="50.13924" lon="4.30387">
        <ele>239.508974</ele>
        <time>2023-10-23T13:38:54.393Z</time>
      </trkpt>
      <trkpt lat="50.13968" lon="4.30475">
        <ele>240.962451</ele>
        <time>2023-10-23T13:40:10.362Z</time>
      </trkpt>
      <trkpt lat="50.1399" lon="4.30558">
        <ele>242.436024</ele>
        <time>2023-10-23T13:41:13.757Z</time>
      </trkpt>
      <trkpt lat="50.13699" lon="4.30952">
        <ele>261.695099</ele>
        <time>2023-10-23T13:48:51.423Z</time>
      </trkpt>
      <trkpt lat="50.13587" lon="4.31082">
        <ele>266.728562</ele>
        <time>2023-10-23T13:51:27.519Z</time>
      </trkpt>
      <trkpt lat="50.13498" lon="4.31297">
        <ele>269.643326</ele>
        <time>2023-10-23T13:54:20.925Z</time>
      </trkpt>
      <trkpt lat="50.13508" lon="4.31332">
        <ele>270.034063</ele>
        <time>2023-10-23T13:54:46.592Z</time>
      </trkpt>
      <trkpt lat="50.13476" lon="4.31433">
        <ele>270.773954</ele>
        <time>2023-10-23T13:56:02.614Z</time>
      </trkpt>
      <trkpt lat="50.13452" lon="4.316">
        <ele>271.826105</ele>
        <time>2023-10-23T13:57:55.681Z</time>
      </trkpt>
      <trkpt lat="50.13419" lon="4.31602">
        <ele>271.834789</ele>
        <time>2023-10-23T13:58:28.829Z</time>
      </trkpt>
      <trkpt lat="50.13304" lon="4.31614">
        <ele>271.865546</ele>
        <time>2023-10-23T14:00:24.448Z</time>
      </trkpt>
      <trkpt lat="50.13279" lon="4.31629">
        <ele>271.859827</ele>
        <time>2023-10-23T14:00:51.302Z</time>
      </trkpt>
      <trkpt lat="50.13247" lon="4.31642">
        <ele>271.561616</ele>
        <time>2023-10-23T14:01:24.780Z</time>
      </trkpt>
      <trkpt lat="50.13112" lon="4.31675">
        <ele>270.342006</ele>
        <time>2023-10-23T14:03:43.655Z</time>
      </trkpt>
      <trkpt lat="50.13097" lon="4.31689">
        <ele>270.116333</ele>
        <time>2023-10-23T14:04:02.468Z</time>
      </trkpt>
      <trkpt lat="50.13055" lon="4.31761">
        <ele>269.126736</ele>
        <time>2023-10-23T14:05:07.257Z</time>
      </trkpt>
      <trkpt lat="50.12985" lon="4.31881">
        <ele>267.476145</ele>
        <time>2023-10-23T14:06:55.439Z</time>
      </trkpt>
      <trkpt lat="50.12876" lon="4.32152">
        <ele>267.08171</ele>
        <time>2023-10-23T14:10:22.691Z</time>
      </trkpt>
      <trkpt lat="50.12758" lon="4.32471">
        <ele>270.480548</ele>
        <time>2023-10-23T14:14:34.564Z</time>
      </trkpt>
      <trkpt lat="50.12729" lon="4.32531">
        <ele>271.141044</ele>
        <time>2023-10-23T14:15:25.800Z</time>
      </trkpt>
      <trkpt lat="50.12626" lon="4.32501">
        <ele>271.477862</ele>
        <time>2023-10-23T14:17:12.604Z</time>
      </trkpt>
      <trkpt lat="50.12359" lon="4.32443">
        <ele>268.886122</ele>
        <time>2023-10-23T14:21:50.333Z</time>
      </trkpt>
      <trkpt lat="50.12102" lon="4.32401">
        <ele>269.800805</ele>
        <time>2023-10-23T14:26:09.339Z</time>
      </trkpt>
      <trkpt lat="50.12094" lon="4.32399">
        <ele>270.07685</ele>
        <time>2023-10-23T14:26:18.658Z</time>
      </trkpt>
      <trkpt lat="50.11928" lon="4.32372">
        <ele>275.749436</ele>
        <time>2023-10-23T14:29:32.560Z</time>
      </trkpt>
      <trkpt lat="50.11672" lon="4.3234">
        <ele>283.037152</ele>
        <time>2023-10-23T14:34:17.706Z</time>
      </trkpt>
      <trkpt lat="50.11588" lon="4.32321">
        <ele>284.325221</ele>
        <time>2023-10-23T14:35:45.303Z</time>
      </trkpt>
      <trkpt lat="50.11505" lon="4.32296">
        <ele>283.693192</ele>
        <time>2023-10-23T14:37:10.304Z</time>
      </trkpt>
      <trkpt lat="50.11425" lon="4.32261">
        <ele>283.05236</ele>
        <time>2023-10-23T14:38:35.911Z</time>
      </trkpt>
      <trkpt lat="50.11358" lon="4.32205">
        <ele>282.141384</ele>
        <time>2023-10-23T14:39:54.928Z</time>
      </trkpt>
      <trkpt lat="50.11287" lon="4.32138">
        <ele>281.160829</ele>
        <time>2023-10-23T14:41:19.273Z</time>
      </trkpt>
      <trkpt lat="50.11224" lon="4.32074">
        <ele>280.630264</ele>
        <time>2023-10-23T14:42:35.691Z</time>
      </trkpt>
      <trkpt lat="50.11179" lon="4.32011">
        <ele>280.293809</ele>
        <time>2023-10-23T14:43:37.067Z</time>
      </trkpt>
      <trkpt lat="50.11131" lon="4.31913">
        <ele>279.836641</ele>
        <time>2023-10-23T14:44:56.862Z</time>
      </trkpt>
      <trkpt lat="50.11096" lon="4.31833">
        <ele>279.423413</ele>
        <time>2023-10-23T14:45:59.601Z</time>
      </trkpt>
      <trkpt lat="50.11004" lon="4.31512">
        <ele>276.950091</ele>
        <time>2023-10-23T14:49:49.370Z</time>
      </trkpt>
      <trkpt lat="50.10966" lon="4.31414">
        <ele>275.419781</ele>
        <time>2023-10-23T14:51:05.723Z</time>
      </trkpt>
      <trkpt lat="50.10396" lon="4.31594">
        <ele>252.699225</ele>
        <time>2023-10-23T15:01:38.214Z</time>
      </trkpt>
      <trkpt lat="50.1032" lon="4.3164">
        <ele>250.904828</ele>
        <time>2023-10-23T15:03:02.899Z</time>
      </trkpt>
      <trkpt lat="50.10246" lon="4.31641">
        <ele>250.113395</ele>
        <time>2023-10-23T15:04:18.131Z</time>
      </trkpt>
      <trkpt lat="50.10178" lon="4.31657">
        <ele>250.185491</ele>
        <time>2023-10-23T15:05:27.957Z</time>
      </trkpt>
      <trkpt lat="50.09853" lon="4.31759">
        <ele>248.907256</ele>
        <time>2023-10-23T15:11:01.365Z</time>
      </trkpt>
      <trkpt lat="50.09634" lon="4.31844">
        <ele>242.743799</ele>
        <time>2023-10-23T15:15:03.418Z</time>
      </trkpt>
      <trkpt lat="50.09515" lon="4.31897">
        <ele>238.96086</ele>
        <time>2023-10-23T15:17:14.940Z</time>
      </trkpt>
      <trkpt lat="50.09457" lon="4.31888">
        <ele>237.340908</ele>
        <time>2023-10-23T15:18:16.167Z</time>
      </trkpt>
      <trkpt lat="50.09244" lon="4.31965">
        <ele>232.854669</ele>
        <time>2023-10-23T15:22:05.510Z</time>
      </trkpt>
      <trkpt lat="50.09206" lon="4.31626">
        <ele>234.591639</ele>
        <time>2023-10-23T15:25:54.028Z</time>
      </trkpt>
      <trkpt lat="50.09168" lon="4.31339">
        <ele>239.138707</ele>
        <time>2023-10-23T15:29:21.595Z</time>
      </trkpt>
      <trkpt lat="50.08894" lon="4.31436">
        <ele>245.629517</ele>
        <time>2023-10-23T15:34:23.403Z</time>
      </trkpt>
      <trkpt lat="50.08743" lon="4.31466">
        <ele>249.404387</ele>
        <time>2023-10-23T15:37:10.872Z</time>
      </trkpt>
      <trkpt lat="50.08664" lon="4.31342">
        <ele>251.578994</ele>
        <time>2023-10-23T15:39:12.920Z</time>
      </trkpt>
      <trkpt lat="50.08413" lon="4.30966">
        <ele>252.766425</ele>
        <time>2023-10-23T15:45:03.688Z</time>
      </trkpt>
      <trkpt lat="50.08344" lon="4.30966">
        <ele>252.212797</ele>
        <time>2023-10-23T15:46:13.042Z</time>
      </trkpt>
      <trkpt lat="50.08242" lon="4.30904">
        <ele>250.59561</ele>
        <time>2023-10-23T15:48:05.727Z</time>
      </trkpt>
      <trkpt lat="50.08169" lon="4.30904">
        <ele>247.870677</ele>
        <time>2023-10-23T15:49:23.395Z</time>
      </trkpt>
      <trkpt lat="50.08105" lon="4.30947">
        <ele>245.242442</ele>
        <time>2023-10-23T15:50:40.531Z</time>
      </trkpt>
      <trkpt lat="50.08051" lon="4.30962">
        <ele>242.021571</ele>
        <time>2023-10-23T15:51:41.829Z</time>
      </trkpt>
      <trkpt lat="50.07957" lon="4.3093">
        <ele>235.801291</ele>
        <time>2023-10-23T15:53:31.134Z</time>
      </trkpt>
      <trkpt lat="50.07893" lon="4.30859">
        <ele>231.248846</ele>
        <time>2023-10-23T15:55:00.916Z</time>
      </trkpt>
      <trkpt lat="50.07844" lon="4.30847">
        <ele>228.812573</ele>
        <time>2023-10-23T15:55:55.496Z</time>
      </trkpt>
      <trkpt lat="50.07831" lon="4.30844">
        <ele>228.137032</ele>
        <time>2023-10-23T15:56:10.361Z</time>
      </trkpt>
      <trkpt lat="50.07821" lon="4.30869">
        <ele>227.197715</ele>
        <time>2023-10-23T15:56:31.090Z</time>
      </trkpt>
      <trkpt lat="50.0779" lon="4.30901">
        <ele>225.341186</ele>
        <time>2023-10-23T15:57:11.452Z</time>
      </trkpt>
      <trkpt lat="50.07733" lon="4.30914">
        <ele>223.617927</ele>
        <time>2023-10-23T15:58:12.173Z</time>
      </trkpt>
      <trkpt lat="50.07717" lon="4.30944">
        <ele>223.19697</ele>
        <time>2023-10-23T15:58:38.290Z</time>
      </trkpt>
      <trkpt lat="50.07666" lon="4.30961">
        <ele>222.318908</ele>
        <time>2023-10-23T15:59:31.963Z</time>
      </trkpt>
      <trkpt lat="50.07615" lon="4.31017">
        <ele>221.268317</ele>
        <time>2023-10-23T16:00:35.211Z</time>
      </trkpt>
      <trkpt lat="50.07627" lon="4.31061">
        <ele>220.95281</ele>
        <time>2023-10-23T16:01:06.114Z</time>
      </trkpt>
      <trkpt lat="50.07661" lon="4.31253">
        <ele>219.864261</ele>
        <time>2023-10-23T16:03:15.835Z</time>
      </trkpt>
      <trkpt lat="50.07483" lon="4.31431">
        <ele>216.983287</ele>
        <time>2023-10-23T16:06:53.511Z</time>
      </trkpt>
      <trkpt lat="50.07244" lon="4.31829">
        <ele>211.076986</ele>
        <time>2023-10-23T16:12:58.079Z</time>
      </trkpt>
      <trkpt lat="50.07241" lon="4.31817">
        <ele>211.038473</ele>
        <time>2023-10-23T16:13:06.348Z</time>
      </trkpt>
      <trkpt lat="50.07188" lon="4.31797">
        <ele>212.359141</ele>
        <time>2023-10-23T16:14:02.382Z</time>
      </trkpt>
      <trkpt lat="50.06987" lon="4.31726">
        <ele>219.122542</ele>
        <time>2023-10-23T16:17:55.175Z</time>
      </trkpt>
      <trkpt lat="50.06935" lon="4.31717">
        <ele>221.549971</ele>
        <time>2023-10-23T16:18:58.334Z</time>
      </trkpt>
      <trkpt lat="50.06918" lon="4.31722">
        <ele>222.347959</ele>
        <time>2023-10-23T16:19:18.880Z</time>
      </trkpt>
      <trkpt lat="50.06892" lon="4.31737">
        <ele>223.611378</ele>
        <time>2023-10-23T16:19:51.893Z</time>
      </trkpt>
      <trkpt lat="50.06864" lon="4.31738">
        <ele>224.198108</ele>
        <time>2023-10-23T16:20:24.726Z</time>
      </trkpt>
      <trkpt lat="50.06853" lon="4.31749">
        <ele>224.46165</ele>
        <time>2023-10-23T16:20:39.317Z</time>
      </trkpt>
      <trkpt lat="50.06842" lon="4.31772">
        <ele>224.844843</ele>
        <time>2023-10-23T16:21:00.310Z</time>
      </trkpt>
      <trkpt lat="50.06807" lon="4.31863">
        <ele>226.261563</ele>
        <time>2023-10-23T16:22:14.836Z</time>
      </trkpt>
      <trkpt lat="50.06798" lon="4.3188">
        <ele>226.557054</ele>
        <time>2023-10-23T16:22:29.766Z</time>
      </trkpt>
      <trkpt lat="50.06635" lon="4.32131">
        <ele>223.477533</ele>
        <time>2023-10-23T16:26:28.371Z</time>
      </trkpt>
      <trkpt lat="50.06616" lon="4.32171">
        <ele>222.694531</ele>
        <time>2023-10-23T16:27:02.105Z</time>
      </trkpt>
      <trkpt lat="50.06603" lon="4.32259">
        <ele>221.267975</ele>
        <time>2023-10-23T16:28:03.452Z</time>
      </trkpt>
      <trkpt lat="50.06601" lon="4.32305">
        <ele>220.525037</ele>
        <time>2023-10-23T16:28:35.348Z</time>
      </trkpt>
      <trkpt lat="50.06602" lon="4.32347">
        <ele>219.85756</ele>
        <time>2023-10-23T16:29:03.932Z</time>
      </trkpt>
      <trkpt lat="50.06612" lon="4.32648">
        <ele>217.657367</ele>
        <time>2023-10-23T16:32:22.028Z</time>
      </trkpt>
      <trkpt lat="50.06613" lon="4.32734">
        <ele>217.926942</ele>
        <time>2023-10-23T16:33:20.141Z</time>
      </trkpt>
      <trkpt lat="50.06606" lon="4.32765">
        <ele>218.085941</ele>
        <time>2023-10-23T16:33:42.687Z</time>
      </trkpt>
      <trkpt lat="50.06601" lon="4.32799">
        <ele>218.251383</ele>
        <time>2023-10-23T16:34:06.151Z</time>
      </trkpt>
      <trkpt lat="50.06596" lon="4.32815">
        <ele>218.33597</ele>
        <time>2023-10-23T16:34:17.927Z</time>
      </trkpt>
      <trkpt lat="50.0658" lon="4.32863">
        <ele>218.595144</ele>
        <time>2023-10-23T16:34:54.127Z</time>
      </trkpt>
      <trkpt lat="50.06574" lon="4.32895">
        <ele>218.7522</ele>
        <time>2023-10-23T16:35:16.068Z</time>
      </trkpt>
      <trkpt lat="50.06564" lon="4.32923">
        <ele>218.904897</ele>
        <time>2023-10-23T16:35:36.910Z</time>
      </trkpt>
      <trkpt lat="50.06544" lon="4.3294">
        <ele>218.621205</ele>
        <time>2023-10-23T16:35:59.996Z</time>
      </trkpt>
      <trkpt lat="50.06529" lon="4.32947">
        <ele>218.407919</ele>
        <time>2023-10-23T16:36:15.536Z</time>
      </trkpt>
      <trkpt lat="50.06514" lon="4.32949">
        <ele>218.202178</ele>
        <time>2023-10-23T16:36:30.744Z</time>
      </trkpt>
      <trkpt lat="50.06469" lon="4.32952">
        <ele>217.574068</ele>
        <time>2023-10-23T16:37:17.430Z</time>
      </trkpt>
      <trkpt lat="50.06456" lon="4.32958">
        <ele>217.388142</ele>
        <time>2023-10-23T16:37:31.181Z</time>
      </trkpt>
      <trkpt lat="50.06449" lon="4.32962">
        <ele>217.289105</ele>
        <time>2023-10-23T16:37:38.710Z</time>
      </trkpt>
      <trkpt lat="50.06425" lon="4.33">
        <ele>216.810131</ele>
        <time>2023-10-23T16:38:14.978Z</time>
      </trkpt>
      <trkpt lat="50.06385" lon="4.33047">
        <ele>215.753351</ele>
        <time>2023-10-23T16:39:07.918Z</time>
      </trkpt>
      <trkpt lat="50.06356" lon="4.3307">
        <ele>214.755183</ele>
        <time>2023-10-23T16:39:43.209Z</time>
      </trkpt>
      <trkpt lat="50.06345" lon="4.33073">
        <ele>214.423172</ele>
        <time>2023-10-23T16:39:54.880Z</time>
      </trkpt>
      <trkpt lat="50.06343" lon="4.33064">
        <ele>214.242161</ele>
        <time>2023-10-23T16:40:01.326Z</time>
      </trkpt>
      <trkpt lat="50.06327" lon="4.33076">
        <ele>213.695212</ele>
        <time>2023-10-23T16:40:20.629Z</time>
      </trkpt>
      <trkpt lat="50.06225" lon="4.33171">
        <ele>210.849615</ele>
        <time>2023-10-23T16:42:26.221Z</time>
      </trkpt>
      <trkpt lat="50.06223" lon="4.33184">
        <ele>210.812861</ele>
        <time>2023-10-23T16:42:35.260Z</time>
      </trkpt>
      <trkpt lat="50.06228" lon="4.33249">
        <ele>210.630161</ele>
        <time>2023-10-23T16:43:19.433Z</time>
      </trkpt>
      <trkpt lat="50.06245" lon="4.33313">
        <ele>210.435419</ele>
        <time>2023-10-23T16:44:04.545Z</time>
      </trkpt>
      <trkpt lat="50.06249" lon="4.33338">
        <ele>210.366355</ele>
        <time>2023-10-23T16:44:20.855Z</time>
      </trkpt>
      <trkpt lat="50.06257" lon="4.33384">
        <ele>210.232335</ele>
        <time>2023-10-23T16:44:54.416Z</time>
      </trkpt>
      <trkpt lat="50.06273" lon="4.33447">
        <ele>211.479684</ele>
        <time>2023-10-23T16:45:41.934Z</time>
      </trkpt>
      <trkpt lat="50.06223" lon="4.33495">
        <ele>213.599549</ele>
        <time>2023-10-23T16:46:48.253Z</time>
      </trkpt>
      <trkpt lat="50.06217" lon="4.33479">
        <ele>214.034468</ele>
        <time>2023-10-23T16:47:01.363Z</time>
      </trkpt>
      <trkpt lat="50.06209" lon="4.33486">
        <ele>214.345289</ele>
        <time>2023-10-23T16:47:11.350Z</time>
      </trkpt>
      <trkpt lat="50.06204" lon="4.33491">
        <ele>214.567229</ele>
        <time>2023-10-23T16:47:18.441Z</time>
      </trkpt>
      <trkpt lat="50.06218" lon="4.33559">
        <ele>216.221785</ele>
        <time>2023-10-23T16:48:10.575Z</time>
      </trkpt>
      <trkpt lat="50.06236" lon="4.33632">
        <ele>218.446952</ele>
        <time>2023-10-23T16:49:09.942Z</time>
      </trkpt>
      <trkpt lat="50.06243" lon="4.33649">
        <ele>219.037762</ele>
        <time>2023-10-23T16:49:24.777Z</time>
      </trkpt>
      <trkpt lat="50.06245" lon="4.33706">
        <ele>220.76084</ele>
        <time>2023-10-23T16:50:07.354Z</time>
      </trkpt>
      <trkpt lat="50.06257" lon="4.3377">
        <ele>222.765289</ele>
        <time>2023-10-23T16:50:56.429Z</time>
      </trkpt>
      <trkpt lat="50.06256" lon="4.33811">
        <ele>224.013833</ele>
        <time>2023-10-23T16:51:27.443Z</time>
      </trkpt>
      <trkpt lat="50.06251" lon="4.33867">
        <ele>225.659306</ele>
        <time>2023-10-23T16:52:09.668Z</time>
      </trkpt>
      <trkpt lat="50.06243" lon="4.33905">
        <ele>226.730837</ele>
        <time>2023-10-23T16:52:39.689Z</time>
      </trkpt>
      <trkpt lat="50.06232" lon="4.33917">
        <ele>227.298021</ele>
        <time>2023-10-23T16:52:55.724Z</time>
      </trkpt>
      <trkpt lat="50.06214" lon="4.33924">
        <ele>228.061988</ele>
        <time>2023-10-23T16:53:17.128Z</time>
      </trkpt>
      <trkpt lat="50.06188" lon="4.33922">
        <ele>229.1825</ele>
        <time>2023-10-23T16:53:48.484Z</time>
      </trkpt>
      <trkpt lat="50.06177" lon="4.33917">
        <ele>229.644554</ele>
        <time>2023-10-23T16:54:01.419Z</time>
      </trkpt>
      <trkpt lat="50.06167" lon="4.33924">
        <ele>230.10225</ele>
        <time>2023-10-23T16:54:14.277Z</time>
      </trkpt>
      <trkpt lat="50.06162" lon="4.33919">
        <ele>230.371969</ele>
        <time>2023-10-23T16:54:21.707Z</time>
      </trkpt>
      <trkpt lat="50.06081" lon="4.33703">
        <ele>234.927289</ele>
        <time>2023-10-23T16:57:17.718Z</time>
      </trkpt>
      <trkpt lat="50.06061" lon="4.33653">
        <ele>235.74442</ele>
        <time>2023-10-23T16:57:57.699Z</time>
      </trkpt>
      <trkpt lat="50.06028" lon="4.33586">
        <ele>236.708013</ele>
        <time>2023-10-23T16:58:53.638Z</time>
      </trkpt>
      <trkpt lat="50.06014" lon="4.3356">
        <ele>236.943472</ele>
        <time>2023-10-23T16:59:17.035Z</time>
      </trkpt>
      <trkpt lat="50.05973" lon="4.33495">
        <ele>237.555907</ele>
        <time>2023-10-23T17:00:17.755Z</time>
      </trkpt>
      <trkpt lat="50.05899" lon="4.33402">
        <ele>238.493374</ele>
        <time>2023-10-23T17:01:56.548Z</time>
      </trkpt>
      <trkpt lat="50.05862" lon="4.3336">
        <ele>238.725303</ele>
        <time>2023-10-23T17:02:43.130Z</time>
      </trkpt>
      <trkpt lat="50.05828" lon="4.33326">
        <ele>238.932087</ele>
        <time>2023-10-23T17:03:24.391Z</time>
      </trkpt>
      <trkpt lat="50.05739" lon="4.33254">
        <ele>239.333155</ele>
        <time>2023-10-23T17:05:06.602Z</time>
      </trkpt>
      <trkpt lat="50.05551" lon="4.33134">
        <ele>238.973418</ele>
        <time>2023-10-23T17:08:30.769Z</time>
      </trkpt>
      <trkpt lat="50.05465" lon="4.33075">
        <ele>238.434655</ele>
        <time>2023-10-23T17:10:06.170Z</time>
      </trkpt>
      <trkpt lat="50.05384" lon="4.33002">
        <ele>237.894394</ele>
        <time>2023-10-23T17:11:40.762Z</time>
      </trkpt>
      <trkpt lat="50.05355" lon="4.3297">
        <ele>237.688726</ele>
        <time>2023-10-23T17:12:16.509Z</time>
      </trkpt>
      <trkpt lat="50.05327" lon="4.32944">
        <ele>237.495675</ele>
        <time>2023-10-23T17:12:49.973Z</time>
      </trkpt>
      <trkpt lat="50.05319" lon="4.32931">
        <ele>237.429665</ele>
        <time>2023-10-23T17:13:01.373Z</time>
      </trkpt>
      <trkpt lat="50.05314" lon="4.32923">
        <ele>237.389773</ele>
        <time>2023-10-23T17:13:08.331Z</time>
      </trkpt>
      <trkpt lat="50.05255" lon="4.32824">
        <ele>236.801187</ele>
        <time>2023-10-23T17:14:36.590Z</time>
      </trkpt>
      <trkpt lat="50.05129" lon="4.32587">
        <ele>235.921474</ele>
        <time>2023-10-23T17:17:57.919Z</time>
      </trkpt>
      <trkpt lat="50.05097" lon="4.32532">
        <ele>236.045644</ele>
        <time>2023-10-23T17:18:46.096Z</time>
      </trkpt>
      <trkpt lat="50.05066" lon="4.32471">
        <ele>236.176155</ele>
        <time>2023-10-23T17:19:37.660Z</time>
      </trkpt>
      <trkpt lat="50.05041" lon="4.32409">
        <ele>236.690352</ele>
        <time>2023-10-23T17:20:27.204Z</time>
      </trkpt>
      <trkpt lat="50.05038" lon="4.32402">
        <ele>236.781775</ele>
        <time>2023-10-23T17:20:32.820Z</time>
      </trkpt>
      <trkpt lat="50.05034" lon="4.324">
        <ele>236.85339</ele>
        <time>2023-10-23T17:20:37.071Z</time>
      </trkpt>
      <trkpt lat="50.05026" lon="4.32401">
        <ele>236.992995</ele>
        <time>2023-10-23T17:20:45.562Z</time>
      </trkpt>
      <trkpt lat="50.05024" lon="4.32399">
        <ele>237.03583</ele>
        <time>2023-10-23T17:20:48.198Z</time>
      </trkpt>
      <trkpt lat="50.05023" lon="4.32381">
        <ele>237.243285</ele>
        <time>2023-10-23T17:21:00.994Z</time>
      </trkpt>
      <trkpt lat="50.05015" lon="4.3235">
        <ele>237.61777</ele>
        <time>2023-10-23T17:21:23.765Z</time>
      </trkpt>
      <trkpt lat="50.04945" lon="4.32206">
        <ele>239.619755</ele>
        <time>2023-10-23T17:23:27.741Z</time>
      </trkpt>
      <trkpt lat="50.04941" lon="4.32181">
        <ele>239.89348</ele>
        <time>2023-10-23T17:23:45.518Z</time>
      </trkpt>
      <trkpt lat="50.04937" lon="4.32153">
        <ele>240.197381</ele>
        <time>2023-10-23T17:24:05.204Z</time>
      </trkpt>
      <trkpt lat="50.04934" lon="4.32139">
        <ele>240.348808</ele>
        <time>2023-10-23T17:24:15.022Z</time>
      </trkpt>
      <trkpt lat="50.04921" lon="4.32142">
        <ele>240.573705</ele>
        <time>2023-10-23T17:24:29.634Z</time>
      </trkpt>
      <trkpt lat="50.04913" lon="4.32138">
        <ele>240.701039</ele>
        <time>2023-10-23T17:24:37.890Z</time>
      </trkpt>
      <trkpt lat="50.04881" lon="4.32078">
        <ele>241.521719</ele>
        <time>2023-10-23T17:25:30.813Z</time>
      </trkpt>
      <trkpt lat="50.04872" lon="4.32056">
        <ele>241.802425</ele>
        <time>2023-10-23T17:25:49.090Z</time>
      </trkpt>
      <trkpt lat="50.0487" lon="4.32044">
        <ele>241.931431</ele>
        <time>2023-10-23T17:25:57.312Z</time>
      </trkpt>
      <trkpt lat="50.04866" lon="4.3202">
        <ele>242.188673</ele>
        <time>2023-10-23T17:26:13.765Z</time>
      </trkpt>
      <trkpt lat="50.04854" lon="4.31996">
        <ele>242.344258</ele>
        <time>2023-10-23T17:26:34.470Z</time>
      </trkpt>
      <trkpt lat="50.04845" lon="4.31976">
        <ele>242.382995</ele>
        <time>2023-10-23T17:26:50.767Z</time>
      </trkpt>
      <trkpt lat="50.04834" lon="4.31954">
        <ele>242.426963</ele>
        <time>2023-10-23T17:27:09.297Z</time>
      </trkpt>
      <trkpt lat="50.04822" lon="4.3193">
        <ele>242.474554</ele>
        <time>2023-10-23T17:27:29.040Z</time>
      </trkpt>
      <trkpt lat="50.04812" lon="4.31906">
        <ele>242.52105</ele>
        <time>2023-10-23T17:27:48.171Z</time>
      </trkpt>
      <trkpt lat="50.048" lon="4.31884">
        <ele>242.566159</ele>
        <time>2023-10-23T17:28:06.610Z</time>
      </trkpt>
      <trkpt lat="50.04791" lon="4.31874">
        <ele>242.5939</ele>
        <time>2023-10-23T17:28:17.818Z</time>
      </trkpt>
      <trkpt lat="50.04779" lon="4.31839">
        <ele>242.657144</ele>
        <time>2023-10-23T17:28:43.548Z</time>
      </trkpt>
      <trkpt lat="50.04772" lon="4.31801">
        <ele>242.720866</ele>
        <time>2023-10-23T17:29:09.591Z</time>
      </trkpt>
      <trkpt lat="50.04771" lon="4.31799">
        <ele>242.72355</ele>
        <time>2023-10-23T17:29:10.678Z</time>
      </trkpt>
      <trkpt lat="50.04739" lon="4.31707">
        <ele>242.291172</ele>
        <time>2023-10-23T17:30:19.814Z</time>
      </trkpt>
      <trkpt lat="50.04736" lon="4.31699">
        <ele>242.240142</ele>
        <time>2023-10-23T17:30:25.769Z</time>
      </trkpt>
      <trkpt lat="50.04702" lon="4.31578">
        <ele>241.494925</ele>
        <time>2023-10-23T17:31:53.313Z</time>
      </trkpt>
      <trkpt lat="50.04632" lon="4.31348">
        <ele>242.503598</ele>
        <time>2023-10-23T17:34:37.297Z</time>
      </trkpt>
      <trkpt lat="50.0459" lon="4.31383">
        <ele>243.002854</ele>
        <time>2023-10-23T17:35:30.252Z</time>
      </trkpt>
      <trkpt lat="50.04536" lon="4.31432">
        <ele>245.353431</ele>
        <time>2023-10-23T17:36:41.166Z</time>
      </trkpt>
      <trkpt lat="50.04504" lon="4.31459">
        <ele>246.799431</ele>
        <time>2023-10-23T17:37:23.107Z</time>
      </trkpt>
      <trkpt lat="50.04458" lon="4.31482">
        <ele>248.696219</ele>
        <time>2023-10-23T17:38:18.652Z</time>
      </trkpt>
      <trkpt lat="50.04422" lon="4.31484">
        <ele>250.143955</ele>
        <time>2023-10-23T17:39:00.706Z</time>
      </trkpt>
      <trkpt lat="50.04408" lon="4.31481">
        <ele>250.684267</ele>
        <time>2023-10-23T17:39:16.819Z</time>
      </trkpt>
      <trkpt lat="50.04396" lon="4.31473">
        <ele>251.173717</ele>
        <time>2023-10-23T17:39:31.347Z</time>
      </trkpt>
      <trkpt lat="50.04359" lon="4.31515">
        <ele>252.912958</ele>
        <time>2023-10-23T17:40:23.346Z</time>
      </trkpt>
      <trkpt lat="50.04334" lon="4.31532">
        <ele>253.951856</ele>
        <time>2023-10-23T17:40:53.849Z</time>
      </trkpt>
      <trkpt lat="50.04215" lon="4.31559">
        <ele>258.397226</ele>
        <time>2023-10-23T17:43:10.294Z</time>
      </trkpt>
      <trkpt lat="50.04119" lon="4.31591">
        <ele>261.713932</ele>
        <time>2023-10-23T17:45:01.194Z</time>
      </trkpt>
      <trkpt lat="50.04055" lon="4.31619">
        <ele>263.539048</ele>
        <time>2023-10-23T17:46:14.313Z</time>
      </trkpt>
      <trkpt lat="50.03962" lon="4.31669">
        <ele>265.200164</ele>
        <time>2023-10-23T17:47:58.829Z</time>
      </trkpt>
      <trkpt lat="50.03891" lon="4.31693">
        <ele>266.074454</ele>
        <time>2023-10-23T17:49:14.161Z</time>
      </trkpt>
      <trkpt lat="50.03753" lon="4.31726">
        <ele>265.163338</ele>
        <time>2023-10-23T17:51:35.017Z</time>
      </trkpt>
      <trkpt lat="50.03689" lon="4.31738">
        <ele>263.359389</ele>
        <time>2023-10-23T17:52:43.490Z</time>
      </trkpt>
      <trkpt lat="50.03627" lon="4.31743">
        <ele>260.818956</ele>
        <time>2023-10-23T17:53:50.268Z</time>
      </trkpt>
      <trkpt lat="50.03586" lon="4.31764">
        <ele>259.028449</ele>
        <time>2023-10-23T17:54:38.253Z</time>
      </trkpt>
      <trkpt lat="50.03538" lon="4.31788">
        <ele>257.090036</ele>
        <time>2023-10-23T17:55:35.176Z</time>
      </trkpt>
      <trkpt lat="50.03451" lon="4.3185">
        <ele>253.918359</ele>
        <time>2023-10-23T17:57:20.382Z</time>
      </trkpt>
      <trkpt lat="50.03441" lon="4.31864">
        <ele>253.472024</ele>
        <time>2023-10-23T17:57:34.736Z</time>
      </trkpt>
      <trkpt lat="50.03435" lon="4.3189">
        <ele>252.900006</ele>
        <time>2023-10-23T17:57:52.477Z</time>
      </trkpt>
      <trkpt lat="50.03425" lon="4.31914">
        <ele>252.298064</ele>
        <time>2023-10-23T17:58:11.255Z</time>
      </trkpt>
      <trkpt lat="50.03379" lon="4.3187">
        <ele>241.9</ele>
        <time>2023-10-23T17:59:03.210Z</time>
      </trkpt>
      <trkpt lat="50.03351" lon="4.31838">
        <ele>239.4</ele>
        <time>2023-10-23T18:00:28.725Z</time>
      </trkpt>
      <trkpt lat="50.03314" lon="4.31811">
        <ele>236.9</ele>
        <time>2023-10-23T18:01:33.855Z</time>
      </trkpt>
      <trkpt lat="50.0325" lon="4.31792">
        <ele>240</ele>
      </trkpt>
    </trkseg>
  </trk>
</gpx>